sensor_id;sensor_type;location;lat;lon;timestamp;P1;durP1;ratioP1;P2;durP2;ratioP2
45007;SDS011;30743;52.008;5.644;2024-01-11T00:01:17;12.80;;;7.10;;
45007;SDS011;30743;52.008;5.644;2024-01-11T00:03:43;12.27;;;6.95;;
45007;SDS011;30743;52.008;5.644;2024-01-11T00:06:08;11.85;;;6.75;;
45007;SDS011;30743;52.008;5.644;2024-01-11T00:08:34;14.98;;;7.75;;
45007;SDS011;30743;52.008;5.644;2024-01-11T00:10:59;13.07;;;7.40;;
45007;SDS011;30743;52.008;5.644;2024-01-11T00:13:25;15.23;;;7.45;;
45007;SDS011;30743;52.008;5.644;2024-01-11T00:15:51;15.10;;;7.78;;
45007;SDS011;30743;52.008;5.644;2024-01-11T00:18:17;14.52;;;7.68;;
45007;SDS011;30743;52.008;5.644;2024-01-11T00:20:42;13.30;;;7.85;;
45007;SDS011;30743;52.008;5.644;2024-01-11T00:23:08;15.85;;;8.05;;
45007;SDS011;30743;52.008;5.644;2024-01-11T00:25:33;15.65;;;8.35;;
45007;SDS011;30743;52.008;5.644;2024-01-11T00:28:00;14.80;;;7.15;;
45007;SDS011;30743;52.008;5.644;2024-01-11T00:30:26;16.33;;;8.18;;
45007;SDS011;30743;52.008;5.644;2024-01-11T00:32:52;14.35;;;7.57;;
45007;SDS011;30743;52.008;5.644;2024-01-11T00:35:17;12.48;;;6.78;;
45007;SDS011;30743;52.008;5.644;2024-01-11T00:37:44;14.10;;;7.03;;
45007;SDS011;30743;52.008;5.644;2024-01-11T00:40:10;13.32;;;6.82;;
45007;SDS011;30743;52.008;5.644;2024-01-11T00:42:36;13.63;;;6.85;;
45007;SDS011;30743;52.008;5.644;2024-01-11T00:45:01;14.48;;;7.13;;
45007;SDS011;30743;52.008;5.644;2024-01-11T00:47:27;13.35;;;6.80;;
45007;SDS011;30743;52.008;5.644;2024-01-11T00:49:52;13.68;;;6.68;;
45007;SDS011;30743;52.008;5.644;2024-01-11T00:52:18;10.82;;;6.15;;
45007;SDS011;30743;52.008;5.644;2024-01-11T00:54:44;12.40;;;5.95;;
45007;SDS011;30743;52.008;5.644;2024-01-11T00:57:10;10.82;;;6.35;;
45007;SDS011;30743;52.008;5.644;2024-01-11T00:59:35;13.68;;;7.10;;
45007;SDS011;30743;52.008;5.644;2024-01-11T01:02:01;12.75;;;7.00;;
45007;SDS011;30743;52.008;5.644;2024-01-11T01:04:27;11.73;;;6.50;;
45007;SDS011;30743;52.008;5.644;2024-01-11T01:06:52;13.32;;;7.03;;
45007;SDS011;30743;52.008;5.644;2024-01-11T01:09:18;13.65;;;6.72;;
45007;SDS011;30743;52.008;5.644;2024-01-11T01:11:43;13.25;;;7.13;;
45007;SDS011;30743;52.008;5.644;2024-01-11T01:14:09;12.52;;;6.75;;
45007;SDS011;30743;52.008;5.644;2024-01-11T01:16:34;12.63;;;6.93;;
45007;SDS011;30743;52.008;5.644;2024-01-11T01:19:00;11.75;;;7.00;;
45007;SDS011;30743;52.008;5.644;2024-01-11T01:21:26;10.13;;;6.22;;
45007;SDS011;30743;52.008;5.644;2024-01-11T01:23:51;12.57;;;7.40;;
45007;SDS011;30743;52.008;5.644;2024-01-11T01:26:17;13.88;;;7.15;;
45007;SDS011;30743;52.008;5.644;2024-01-11T01:28:42;13.77;;;6.60;;
45007;SDS011;30743;52.008;5.644;2024-01-11T01:31:09;14.02;;;7.30;;
45007;SDS011;30743;52.008;5.644;2024-01-11T01:33:35;12.88;;;7.07;;
45007;SDS011;30743;52.008;5.644;2024-01-11T01:36:00;13.60;;;7.00;;
45007;SDS011;30743;52.008;5.644;2024-01-11T01:38:26;15.63;;;6.25;;
45007;SDS011;30743;52.008;5.644;2024-01-11T01:40:51;13.63;;;6.57;;
45007;SDS011;30743;52.008;5.644;2024-01-11T01:43:17;14.15;;;6.60;;
45007;SDS011;30743;52.008;5.644;2024-01-11T01:45:42;12.75;;;6.70;;
45007;SDS011;30743;52.008;5.644;2024-01-11T01:48:08;11.13;;;6.72;;
45007;SDS011;30743;52.008;5.644;2024-01-11T01:50:33;9.93;;;5.72;;
45007;SDS011;30743;52.008;5.644;2024-01-11T01:52:59;11.13;;;6.25;;
45007;SDS011;30743;52.008;5.644;2024-01-11T01:55:26;12.40;;;6.45;;
45007;SDS011;30743;52.008;5.644;2024-01-11T01:57:53;13.00;;;6.78;;
45007;SDS011;30743;52.008;5.644;2024-01-11T02:00:19;10.90;;;6.53;;
45007;SDS011;30743;52.008;5.644;2024-01-11T02:02:45;13.82;;;6.55;;
45007;SDS011;30743;52.008;5.644;2024-01-11T02:05:14;17.67;;;7.05;;
45007;SDS011;30743;52.008;5.644;2024-01-11T02:07:41;10.02;;;6.30;;
45007;SDS011;30743;52.008;5.644;2024-01-11T02:10:07;11.32;;;6.68;;
45007;SDS011;30743;52.008;5.644;2024-01-11T02:12:35;14.23;;;7.47;;
45007;SDS011;30743;52.008;5.644;2024-01-11T02:15:02;13.07;;;7.07;;
45007;SDS011;30743;52.008;5.644;2024-01-11T02:17:29;14.20;;;7.10;;
45007;SDS011;30743;52.008;5.644;2024-01-11T02:19:55;12.55;;;7.32;;
45007;SDS011;30743;52.008;5.644;2024-01-11T02:22:22;19.92;;;7.80;;
45007;SDS011;30743;52.008;5.644;2024-01-11T02:24:49;13.38;;;6.78;;
45007;SDS011;30743;52.008;5.644;2024-01-11T02:27:15;11.73;;;6.65;;
45007;SDS011;30743;52.008;5.644;2024-01-11T02:29:41;12.20;;;6.63;;
45007;SDS011;30743;52.008;5.644;2024-01-11T02:32:07;11.82;;;6.00;;
45007;SDS011;30743;52.008;5.644;2024-01-11T02:34:33;11.52;;;5.57;;
45007;SDS011;30743;52.008;5.644;2024-01-11T02:36:59;12.50;;;7.03;;
45007;SDS011;30743;52.008;5.644;2024-01-11T02:39:25;11.18;;;6.20;;
45007;SDS011;30743;52.008;5.644;2024-01-11T02:41:52;13.77;;;6.65;;
45007;SDS011;30743;52.008;5.644;2024-01-11T02:44:22;13.57;;;6.97;;
45007;SDS011;30743;52.008;5.644;2024-01-11T02:46:48;11.75;;;6.72;;
45007;SDS011;30743;52.008;5.644;2024-01-11T02:49:14;12.25;;;7.35;;
45007;SDS011;30743;52.008;5.644;2024-01-11T02:51:40;12.70;;;7.10;;
45007;SDS011;30743;52.008;5.644;2024-01-11T02:54:05;11.80;;;6.55;;
45007;SDS011;30743;52.008;5.644;2024-01-11T02:56:31;12.25;;;6.85;;
45007;SDS011;30743;52.008;5.644;2024-01-11T02:58:57;13.48;;;7.38;;
45007;SDS011;30743;52.008;5.644;2024-01-11T03:01:22;11.85;;;6.82;;
45007;SDS011;30743;52.008;5.644;2024-01-11T03:03:48;14.80;;;7.65;;
45007;SDS011;30743;52.008;5.644;2024-01-11T03:06:14;15.52;;;7.50;;
45007;SDS011;30743;52.008;5.644;2024-01-11T03:08:39;13.93;;;7.28;;
45007;SDS011;30743;52.008;5.644;2024-01-11T03:11:05;12.23;;;6.97;;
45007;SDS011;30743;52.008;5.644;2024-01-11T03:13:31;13.50;;;7.35;;
45007;SDS011;30743;52.008;5.644;2024-01-11T03:15:56;11.85;;;6.68;;
45007;SDS011;30743;52.008;5.644;2024-01-11T03:18:22;13.23;;;6.95;;
45007;SDS011;30743;52.008;5.644;2024-01-11T03:20:48;14.05;;;6.47;;
45007;SDS011;30743;52.008;5.644;2024-01-11T03:23:13;12.48;;;6.78;;
45007;SDS011;30743;52.008;5.644;2024-01-11T03:25:39;10.07;;;5.85;;
45007;SDS011;30743;52.008;5.644;2024-01-11T03:28:04;12.13;;;6.82;;
45007;SDS011;30743;52.008;5.644;2024-01-11T03:30:30;14.05;;;6.82;;
45007;SDS011;30743;52.008;5.644;2024-01-11T03:32:55;11.23;;;6.25;;
45007;SDS011;30743;52.008;5.644;2024-01-11T03:35:21;10.10;;;5.53;;
45007;SDS011;30743;52.008;5.644;2024-01-11T03:37:47;12.80;;;7.03;;
45007;SDS011;30743;52.008;5.644;2024-01-11T03:40:13;10.25;;;6.05;;
45007;SDS011;30743;52.008;5.644;2024-01-11T03:42:39;12.88;;;6.53;;
45007;SDS011;30743;52.008;5.644;2024-01-11T03:45:06;10.70;;;6.82;;
45007;SDS011;30743;52.008;5.644;2024-01-11T03:47:32;14.55;;;7.07;;
45007;SDS011;30743;52.008;5.644;2024-01-11T03:49:57;13.18;;;6.50;;
45007;SDS011;30743;52.008;5.644;2024-01-11T03:52:23;10.77;;;7.03;;
45007;SDS011;30743;52.008;5.644;2024-01-11T03:54:48;11.95;;;6.82;;
45007;SDS011;30743;52.008;5.644;2024-01-11T03:57:14;11.27;;;6.78;;
45007;SDS011;30743;52.008;5.644;2024-01-11T03:59:41;11.98;;;7.00;;
45007;SDS011;30743;52.008;5.644;2024-01-11T04:02:07;12.23;;;7.10;;
45007;SDS011;30743;52.008;5.644;2024-01-11T04:04:32;16.42;;;6.93;;
45007;SDS011;30743;52.008;5.644;2024-01-11T04:06:58;12.30;;;6.72;;
45007;SDS011;30743;52.008;5.644;2024-01-11T04:09:24;12.43;;;7.00;;
45007;SDS011;30743;52.008;5.644;2024-01-11T04:11:49;12.93;;;7.50;;
45007;SDS011;30743;52.008;5.644;2024-01-11T04:14:15;12.25;;;6.95;;
45007;SDS011;30743;52.008;5.644;2024-01-11T04:16:41;13.88;;;7.10;;
45007;SDS011;30743;52.008;5.644;2024-01-11T04:19:07;11.95;;;6.50;;
45007;SDS011;30743;52.008;5.644;2024-01-11T04:21:33;15.10;;;7.53;;
45007;SDS011;30743;52.008;5.644;2024-01-11T04:23:59;15.00;;;7.38;;
45007;SDS011;30743;52.008;5.644;2024-01-11T04:26:25;14.00;;;7.45;;
45007;SDS011;30743;52.008;5.644;2024-01-11T04:28:51;14.15;;;7.47;;
45007;SDS011;30743;52.008;5.644;2024-01-11T04:31:18;12.88;;;6.80;;
45007;SDS011;30743;52.008;5.644;2024-01-11T04:33:44;13.52;;;7.38;;
45007;SDS011;30743;52.008;5.644;2024-01-11T04:36:10;13.40;;;7.75;;
45007;SDS011;30743;52.008;5.644;2024-01-11T04:38:37;16.35;;;7.45;;
45007;SDS011;30743;52.008;5.644;2024-01-11T04:43:37;14.32;;;7.40;;
45007;SDS011;30743;52.008;5.644;2024-01-11T04:46:22;12.00;;;7.18;;
45007;SDS011;30743;52.008;5.644;2024-01-11T04:48:48;15.68;;;7.90;;
45007;SDS011;30743;52.008;5.644;2024-01-11T04:51:15;13.80;;;7.28;;
45007;SDS011;30743;52.008;5.644;2024-01-11T04:53:42;14.40;;;8.13;;
45007;SDS011;30743;52.008;5.644;2024-01-11T04:56:10;17.45;;;8.38;;
45007;SDS011;30743;52.008;5.644;2024-01-11T04:58:38;15.70;;;7.85;;
45007;SDS011;30743;52.008;5.644;2024-01-11T05:01:05;15.38;;;8.45;;
45007;SDS011;30743;52.008;5.644;2024-01-11T05:03:31;17.63;;;8.88;;
45007;SDS011;30743;52.008;5.644;2024-01-11T05:06:00;17.42;;;8.20;;
45007;SDS011;30743;52.008;5.644;2024-01-11T05:08:26;13.60;;;8.10;;
45007;SDS011;30743;52.008;5.644;2024-01-11T05:10:52;15.40;;;8.55;;
45007;SDS011;30743;52.008;5.644;2024-01-11T05:13:18;14.35;;;8.20;;
45007;SDS011;30743;52.008;5.644;2024-01-11T05:15:44;15.73;;;8.95;;
45007;SDS011;30743;52.008;5.644;2024-01-11T05:18:10;16.58;;;8.27;;
45007;SDS011;30743;52.008;5.644;2024-01-11T05:20:36;19.35;;;9.32;;
45007;SDS011;30743;52.008;5.644;2024-01-11T05:23:02;17.40;;;9.05;;
45007;SDS011;30743;52.008;5.644;2024-01-11T05:25:29;16.13;;;9.40;;
45007;SDS011;30743;52.008;5.644;2024-01-11T05:27:58;14.05;;;7.78;;
45007;SDS011;30743;52.008;5.644;2024-01-11T05:30:28;15.30;;;9.20;;
45007;SDS011;30743;52.008;5.644;2024-01-11T05:32:54;16.60;;;9.73;;
45007;SDS011;30743;52.008;5.644;2024-01-11T05:35:20;18.55;;;8.82;;
45007;SDS011;30743;52.008;5.644;2024-01-11T05:37:46;15.48;;;9.00;;
45007;SDS011;30743;52.008;5.644;2024-01-11T05:40:12;17.42;;;10.25;;
45007;SDS011;30743;52.008;5.644;2024-01-11T05:42:38;19.10;;;9.55;;
45007;SDS011;30743;52.008;5.644;2024-01-11T05:45:04;16.77;;;9.73;;
45007;SDS011;30743;52.008;5.644;2024-01-11T05:47:30;16.45;;;9.85;;
45007;SDS011;30743;52.008;5.644;2024-01-11T05:49:56;15.68;;;8.90;;
45007;SDS011;30743;52.008;5.644;2024-01-11T05:52:21;19.00;;;10.30;;
45007;SDS011;30743;52.008;5.644;2024-01-11T05:54:47;15.82;;;8.75;;
45007;SDS011;30743;52.008;5.644;2024-01-11T05:57:12;17.45;;;8.95;;
45007;SDS011;30743;52.008;5.644;2024-01-11T05:59:43;14.82;;;9.10;;
45007;SDS011;30743;52.008;5.644;2024-01-11T06:02:09;21.48;;;9.23;;
45007;SDS011;30743;52.008;5.644;2024-01-11T06:04:36;17.20;;;9.52;;
45007;SDS011;30743;52.008;5.644;2024-01-11T06:07:01;15.30;;;9.13;;
45007;SDS011;30743;52.008;5.644;2024-01-11T06:09:27;17.83;;;9.45;;
45007;SDS011;30743;52.008;5.644;2024-01-11T06:11:52;19.17;;;9.55;;
45007;SDS011;30743;52.008;5.644;2024-01-11T06:14:18;18.63;;;9.68;;
45007;SDS011;30743;52.008;5.644;2024-01-11T06:16:44;15.20;;;8.80;;
45007;SDS011;30743;52.008;5.644;2024-01-11T06:19:09;17.17;;;9.18;;
45007;SDS011;30743;52.008;5.644;2024-01-11T06:21:35;18.67;;;9.85;;
45007;SDS011;30743;52.008;5.644;2024-01-11T06:24:01;16.15;;;8.63;;
45007;SDS011;30743;52.008;5.644;2024-01-11T06:26:28;18.67;;;9.55;;
45007;SDS011;30743;52.008;5.644;2024-01-11T06:28:54;17.58;;;9.68;;
45007;SDS011;30743;52.008;5.644;2024-01-11T06:31:19;15.80;;;8.98;;
45007;SDS011;30743;52.008;5.644;2024-01-11T06:33:45;20.15;;;10.05;;
45007;SDS011;30743;52.008;5.644;2024-01-11T06:36:10;18.55;;;9.40;;
45007;SDS011;30743;52.008;5.644;2024-01-11T06:38:36;18.00;;;9.90;;
45007;SDS011;30743;52.008;5.644;2024-01-11T06:41:01;15.77;;;9.07;;
45007;SDS011;30743;52.008;5.644;2024-01-11T06:43:27;18.38;;;10.30;;
45007;SDS011;30743;52.008;5.644;2024-01-11T06:45:53;19.15;;;9.95;;
45007;SDS011;30743;52.008;5.644;2024-01-11T06:48:18;18.80;;;10.10;;
45007;SDS011;30743;52.008;5.644;2024-01-11T06:50:44;14.88;;;10.15;;
45007;SDS011;30743;52.008;5.644;2024-01-11T06:53:10;19.80;;;10.48;;
45007;SDS011;30743;52.008;5.644;2024-01-11T06:55:35;21.00;;;11.07;;
45007;SDS011;30743;52.008;5.644;2024-01-11T06:58:01;19.33;;;12.05;;
45007;SDS011;30743;52.008;5.644;2024-01-11T07:00:27;20.55;;;11.05;;
45007;SDS011;30743;52.008;5.644;2024-01-11T07:02:53;18.60;;;10.35;;
45007;SDS011;30743;52.008;5.644;2024-01-11T07:05:18;16.95;;;10.30;;
45007;SDS011;30743;52.008;5.644;2024-01-11T07:07:44;17.67;;;9.82;;
45007;SDS011;30743;52.008;5.644;2024-01-11T07:10:10;23.15;;;11.07;;
45007;SDS011;30743;52.008;5.644;2024-01-11T07:12:35;18.08;;;10.55;;
45007;SDS011;30743;52.008;5.644;2024-01-11T07:15:03;19.13;;;11.35;;
45007;SDS011;30743;52.008;5.644;2024-01-11T07:17:29;18.20;;;10.27;;
45007;SDS011;30743;52.008;5.644;2024-01-11T07:19:55;21.98;;;11.30;;
45007;SDS011;30743;52.008;5.644;2024-01-11T07:22:21;23.38;;;11.90;;
45007;SDS011;30743;52.008;5.644;2024-01-11T07:24:46;15.70;;;10.30;;
45007;SDS011;30743;52.008;5.644;2024-01-11T07:27:12;19.35;;;11.00;;
45007;SDS011;30743;52.008;5.644;2024-01-11T07:29:38;26.02;;;11.55;;
45007;SDS011;30743;52.008;5.644;2024-01-11T07:32:03;20.63;;;11.13;;
45007;SDS011;30743;52.008;5.644;2024-01-11T07:34:29;18.52;;;10.80;;
45007;SDS011;30743;52.008;5.644;2024-01-11T07:36:55;19.02;;;10.77;;
45007;SDS011;30743;52.008;5.644;2024-01-11T07:39:21;20.55;;;11.05;;
45007;SDS011;30743;52.008;5.644;2024-01-11T07:41:47;17.92;;;9.95;;
45007;SDS011;30743;52.008;5.644;2024-01-11T07:44:13;19.92;;;11.18;;
45007;SDS011;30743;52.008;5.644;2024-01-11T07:46:39;18.45;;;11.05;;
45007;SDS011;30743;52.008;5.644;2024-01-11T07:49:05;22.38;;;11.93;;
45007;SDS011;30743;52.008;5.644;2024-01-11T07:51:31;20.63;;;11.35;;
45007;SDS011;30743;52.008;5.644;2024-01-11T07:53:57;20.85;;;10.68;;
45007;SDS011;30743;52.008;5.644;2024-01-11T07:56:23;23.70;;;11.75;;
45007;SDS011;30743;52.008;5.644;2024-01-11T07:58:49;23.40;;;11.68;;
45007;SDS011;30743;52.008;5.644;2024-01-11T08:01:15;22.00;;;11.82;;
45007;SDS011;30743;52.008;5.644;2024-01-11T08:03:41;23.65;;;11.63;;
45007;SDS011;30743;52.008;5.644;2024-01-11T08:06:09;22.57;;;12.77;;
45007;SDS011;30743;52.008;5.644;2024-01-11T08:08:35;23.80;;;12.35;;
45007;SDS011;30743;52.008;5.644;2024-01-11T08:11:01;23.08;;;12.90;;
45007;SDS011;30743;52.008;5.644;2024-01-11T08:13:28;27.27;;;13.40;;
45007;SDS011;30743;52.008;5.644;2024-01-11T08:15:56;24.58;;;13.38;;
45007;SDS011;30743;52.008;5.644;2024-01-11T08:18:22;27.65;;;13.13;;
45007;SDS011;30743;52.008;5.644;2024-01-11T08:20:48;22.35;;;11.43;;
45007;SDS011;30743;52.008;5.644;2024-01-11T08:23:14;20.20;;;12.05;;
45007;SDS011;30743;52.008;5.644;2024-01-11T08:25:40;19.92;;;12.40;;
45007;SDS011;30743;52.008;5.644;2024-01-11T08:28:05;23.13;;;12.45;;
45007;SDS011;30743;52.008;5.644;2024-01-11T08:30:32;25.60;;;12.30;;
45007;SDS011;30743;52.008;5.644;2024-01-11T08:32:57;23.05;;;13.15;;
45007;SDS011;30743;52.008;5.644;2024-01-11T08:35:23;30.63;;;13.35;;
45007;SDS011;30743;52.008;5.644;2024-01-11T08:37:49;23.40;;;13.43;;
45007;SDS011;30743;52.008;5.644;2024-01-11T08:40:14;22.23;;;12.35;;
45007;SDS011;30743;52.008;5.644;2024-01-11T08:42:40;21.63;;;13.00;;
45007;SDS011;30743;52.008;5.644;2024-01-11T08:45:07;23.77;;;12.98;;
45007;SDS011;30743;52.008;5.644;2024-01-11T08:47:34;25.08;;;12.95;;
45007;SDS011;30743;52.008;5.644;2024-01-11T08:50:00;22.85;;;13.27;;
45007;SDS011;30743;52.008;5.644;2024-01-11T08:52:26;21.75;;;12.48;;
45007;SDS011;30743;52.008;5.644;2024-01-11T08:54:51;22.27;;;12.88;;
45007;SDS011;30743;52.008;5.644;2024-01-11T08:57:17;23.02;;;12.77;;
45007;SDS011;30743;52.008;5.644;2024-01-11T08:59:43;22.98;;;13.25;;
45007;SDS011;30743;52.008;5.644;2024-01-11T09:02:09;25.95;;;13.60;;
45007;SDS011;30743;52.008;5.644;2024-01-11T09:04:35;22.42;;;12.93;;
45007;SDS011;30743;52.008;5.644;2024-01-11T09:07:01;24.35;;;13.85;;
45007;SDS011;30743;52.008;5.644;2024-01-11T09:09:27;23.67;;;13.88;;
45007;SDS011;30743;52.008;5.644;2024-01-11T09:11:52;21.73;;;13.57;;
45007;SDS011;30743;52.008;5.644;2024-01-11T09:14:18;21.92;;;13.00;;
45007;SDS011;30743;52.008;5.644;2024-01-11T09:16:44;22.85;;;13.75;;
45007;SDS011;30743;52.008;5.644;2024-01-11T09:19:14;20.77;;;13.02;;
45007;SDS011;30743;52.008;5.644;2024-01-11T09:21:39;23.95;;;13.80;;
45007;SDS011;30743;52.008;5.644;2024-01-11T09:24:06;20.55;;;12.65;;
45007;SDS011;30743;52.008;5.644;2024-01-11T09:26:31;21.25;;;13.77;;
45007;SDS011;30743;52.008;5.644;2024-01-11T09:28:57;21.45;;;13.23;;
45007;SDS011;30743;52.008;5.644;2024-01-11T09:31:23;24.08;;;13.32;;
45007;SDS011;30743;52.008;5.644;2024-01-11T09:33:48;21.38;;;13.93;;
45007;SDS011;30743;52.008;5.644;2024-01-11T09:36:15;21.02;;;12.88;;
45007;SDS011;30743;52.008;5.644;2024-01-11T09:38:40;22.80;;;13.05;;
45007;SDS011;30743;52.008;5.644;2024-01-11T09:41:07;17.15;;;11.82;;
45007;SDS011;30743;52.008;5.644;2024-01-11T09:43:34;20.10;;;12.98;;
45007;SDS011;30743;52.008;5.644;2024-01-11T09:46:04;20.25;;;12.13;;
45007;SDS011;30743;52.008;5.644;2024-01-11T09:48:32;19.55;;;12.43;;
45007;SDS011;30743;52.008;5.644;2024-01-11T09:51:00;17.55;;;11.63;;
45007;SDS011;30743;52.008;5.644;2024-01-11T09:53:33;17.20;;;11.63;;
45007;SDS011;30743;52.008;5.644;2024-01-11T09:55:59;16.92;;;10.85;;
45007;SDS011;30743;52.008;5.644;2024-01-11T09:58:25;17.10;;;12.15;;
45007;SDS011;30743;52.008;5.644;2024-01-11T10:00:55;16.45;;;11.40;;
45007;SDS011;30743;52.008;5.644;2024-01-11T10:03:24;16.67;;;11.80;;
45007;SDS011;30743;52.008;5.644;2024-01-11T10:05:51;16.85;;;11.85;;
45007;SDS011;30743;52.008;5.644;2024-01-11T10:08:22;16.98;;;11.23;;
45007;SDS011;30743;52.008;5.644;2024-01-11T10:10:48;15.50;;;10.52;;
45007;SDS011;30743;52.008;5.644;2024-01-11T10:13:14;18.13;;;10.38;;
45007;SDS011;30743;52.008;5.644;2024-01-11T10:15:41;13.25;;;9.75;;
45007;SDS011;30743;52.008;5.644;2024-01-11T10:18:07;14.63;;;10.07;;
45007;SDS011;30743;52.008;5.644;2024-01-11T10:20:32;13.52;;;9.55;;
45007;SDS011;30743;52.008;5.644;2024-01-11T10:22:59;12.82;;;9.43;;
45007;SDS011;30743;52.008;5.644;2024-01-11T10:25:27;14.32;;;9.48;;
45007;SDS011;30743;52.008;5.644;2024-01-11T10:27:53;13.05;;;8.95;;
45007;SDS011;30743;52.008;5.644;2024-01-11T10:30:19;12.70;;;8.88;;
45007;SDS011;30743;52.008;5.644;2024-01-11T10:32:47;11.77;;;8.85;;
45007;SDS011;30743;52.008;5.644;2024-01-11T10:35:14;13.27;;;8.85;;
45007;SDS011;30743;52.008;5.644;2024-01-11T10:37:42;11.57;;;7.55;;
45007;SDS011;30743;52.008;5.644;2024-01-11T10:40:09;11.85;;;7.55;;
45007;SDS011;30743;52.008;5.644;2024-01-11T10:42:36;10.77;;;7.22;;
45007;SDS011;30743;52.008;5.644;2024-01-11T10:45:10;12.57;;;7.43;;
45007;SDS011;30743;52.008;5.644;2024-01-11T10:47:39;12.40;;;7.38;;
45007;SDS011;30743;52.008;5.644;2024-01-11T10:50:22;13.10;;;8.20;;
45007;SDS011;30743;52.008;5.644;2024-01-11T10:55:49;14.45;;;7.82;;
45007;SDS011;30743;52.008;5.644;2024-01-11T10:58:15;15.48;;;7.57;;
45007;SDS011;30743;52.008;5.644;2024-01-11T11:00:42;13.05;;;7.93;;
45007;SDS011;30743;52.008;5.644;2024-01-11T11:03:10;14.80;;;7.70;;
45007;SDS011;30743;52.008;5.644;2024-01-11T11:05:37;15.80;;;8.48;;
45007;SDS011;30743;52.008;5.644;2024-01-11T11:08:04;17.58;;;8.52;;
45007;SDS011;30743;52.008;5.644;2024-01-11T11:10:33;16.33;;;7.95;;
45007;SDS011;30743;52.008;5.644;2024-01-11T11:13:00;16.55;;;8.30;;
45007;SDS011;30743;52.008;5.644;2024-01-11T11:15:26;22.30;;;8.55;;
45007;SDS011;30743;52.008;5.644;2024-01-11T11:17:52;19.00;;;8.73;;
45007;SDS011;30743;52.008;5.644;2024-01-11T11:20:18;16.58;;;8.55;;
45007;SDS011;30743;52.008;5.644;2024-01-11T11:22:47;17.58;;;9.02;;
45007;SDS011;30743;52.008;5.644;2024-01-11T11:25:28;20.60;;;9.15;;
45007;SDS011;30743;52.008;5.644;2024-01-11T11:27:55;18.60;;;9.10;;
45007;SDS011;30743;52.008;5.644;2024-01-11T11:30:21;21.63;;;9.30;;
45007;SDS011;30743;52.008;5.644;2024-01-11T11:32:46;18.02;;;8.98;;
45007;SDS011;30743;52.008;5.644;2024-01-11T11:35:12;25.88;;;9.48;;
45007;SDS011;30743;52.008;5.644;2024-01-11T11:37:38;19.50;;;9.02;;
45007;SDS011;30743;52.008;5.644;2024-01-11T11:40:05;19.20;;;9.13;;
45007;SDS011;30743;52.008;5.644;2024-01-11T11:42:32;19.83;;;8.77;;
45007;SDS011;30743;52.008;5.644;2024-01-11T11:44:59;19.63;;;10.02;;
45007;SDS011;30743;52.008;5.644;2024-01-11T11:47:25;21.17;;;10.23;;
45007;SDS011;30743;52.008;5.644;2024-01-11T11:52:32;19.27;;;8.82;;
45007;SDS011;30743;52.008;5.644;2024-01-11T11:54:59;20.33;;;9.13;;
45007;SDS011;30743;52.008;5.644;2024-01-11T11:57:26;17.20;;;9.27;;
45007;SDS011;30743;52.008;5.644;2024-01-11T11:59:54;18.88;;;9.05;;
45007;SDS011;30743;52.008;5.644;2024-01-11T12:02:24;17.50;;;8.77;;
45007;SDS011;30743;52.008;5.644;2024-01-11T12:04:53;17.15;;;8.82;;
45007;SDS011;30743;52.008;5.644;2024-01-11T12:07:21;16.55;;;8.57;;
45007;SDS011;30743;52.008;5.644;2024-01-11T12:09:48;17.23;;;9.65;;
45007;SDS011;30743;52.008;5.644;2024-01-11T12:12:15;17.77;;;8.57;;
45007;SDS011;30743;52.008;5.644;2024-01-11T12:14:42;18.95;;;9.48;;
45007;SDS011;30743;52.008;5.644;2024-01-11T12:17:08;15.63;;;9.10;;
45007;SDS011;30743;52.008;5.644;2024-01-11T12:19:34;16.80;;;8.63;;
45007;SDS011;30743;52.008;5.644;2024-01-11T12:21:59;16.90;;;9.20;;
45007;SDS011;30743;52.008;5.644;2024-01-11T12:24:25;18.83;;;9.25;;
45007;SDS011;30743;52.008;5.644;2024-01-11T12:26:52;17.00;;;9.77;;
45007;SDS011;30743;52.008;5.644;2024-01-11T12:29:19;16.95;;;8.88;;
45007;SDS011;30743;52.008;5.644;2024-01-11T12:31:45;16.08;;;8.60;;
45007;SDS011;30743;52.008;5.644;2024-01-11T12:34:13;20.10;;;9.40;;
45007;SDS011;30743;52.008;5.644;2024-01-11T12:36:39;17.05;;;8.80;;
45007;SDS011;30743;52.008;5.644;2024-01-11T12:39:05;17.67;;;9.25;;
45007;SDS011;30743;52.008;5.644;2024-01-11T12:41:31;20.73;;;9.82;;
45007;SDS011;30743;52.008;5.644;2024-01-11T12:43:58;19.45;;;8.73;;
45007;SDS011;30743;52.008;5.644;2024-01-11T12:46:23;15.93;;;8.63;;
45007;SDS011;30743;52.008;5.644;2024-01-11T12:48:49;17.10;;;8.80;;
45007;SDS011;30743;52.008;5.644;2024-01-11T12:51:16;15.25;;;8.18;;
45007;SDS011;30743;52.008;5.644;2024-01-11T12:53:44;16.17;;;8.60;;
45007;SDS011;30743;52.008;5.644;2024-01-11T12:56:11;15.32;;;8.10;;
45007;SDS011;30743;52.008;5.644;2024-01-11T12:58:39;16.88;;;7.75;;
45007;SDS011;30743;52.008;5.644;2024-01-11T13:01:06;11.77;;;7.28;;
45007;SDS011;30743;52.008;5.644;2024-01-11T13:03:33;13.32;;;7.75;;
45007;SDS011;30743;52.008;5.644;2024-01-11T13:05:59;15.50;;;8.07;;
45007;SDS011;30743;52.008;5.644;2024-01-11T13:08:25;14.52;;;7.97;;
45007;SDS011;30743;52.008;5.644;2024-01-11T13:10:52;15.98;;;8.40;;
45007;SDS011;30743;52.008;5.644;2024-01-11T13:13:17;15.52;;;8.05;;
45007;SDS011;30743;52.008;5.644;2024-01-11T13:15:44;15.00;;;8.35;;
45007;SDS011;30743;52.008;5.644;2024-01-11T13:18:10;14.98;;;8.35;;
45007;SDS011;30743;52.008;5.644;2024-01-11T13:20:35;16.52;;;8.63;;
45007;SDS011;30743;52.008;5.644;2024-01-11T13:23:14;17.13;;;8.48;;
45007;SDS011;30743;52.008;5.644;2024-01-11T13:25:41;19.00;;;9.13;;
45007;SDS011;30743;52.008;5.644;2024-01-11T13:28:07;15.50;;;8.88;;
45007;SDS011;30743;52.008;5.644;2024-01-11T13:30:33;18.05;;;9.27;;
45007;SDS011;30743;52.008;5.644;2024-01-11T13:32:59;17.40;;;8.93;;
45007;SDS011;30743;52.008;5.644;2024-01-11T13:35:24;17.35;;;8.90;;
45007;SDS011;30743;52.008;5.644;2024-01-11T13:37:50;16.17;;;8.73;;
45007;SDS011;30743;52.008;5.644;2024-01-11T13:40:16;16.15;;;9.07;;
45007;SDS011;30743;52.008;5.644;2024-01-11T13:42:41;16.67;;;8.80;;
45007;SDS011;30743;52.008;5.644;2024-01-11T13:45:08;13.32;;;7.88;;
45007;SDS011;30743;52.008;5.644;2024-01-11T13:47:34;16.98;;;8.70;;
45007;SDS011;30743;52.008;5.644;2024-01-11T13:50:00;15.35;;;8.00;;
45007;SDS011;30743;52.008;5.644;2024-01-11T13:52:26;15.48;;;8.50;;
45007;SDS011;30743;52.008;5.644;2024-01-11T13:54:52;15.30;;;8.70;;
45007;SDS011;30743;52.008;5.644;2024-01-11T13:57:17;16.95;;;9.02;;
45007;SDS011;30743;52.008;5.644;2024-01-11T13:59:43;19.52;;;9.50;;
45007;SDS011;30743;52.008;5.644;2024-01-11T14:02:08;16.95;;;8.43;;
45007;SDS011;30743;52.008;5.644;2024-01-11T14:04:34;17.77;;;8.27;;
45007;SDS011;30743;52.008;5.644;2024-01-11T14:07:00;15.85;;;8.18;;
45007;SDS011;30743;52.008;5.644;2024-01-11T14:09:26;13.85;;;7.93;;
45007;SDS011;30743;52.008;5.644;2024-01-11T14:11:52;15.00;;;7.57;;
45007;SDS011;30743;52.008;5.644;2024-01-11T14:14:18;14.75;;;8.38;;
45007;SDS011;30743;52.008;5.644;2024-01-11T14:16:45;14.55;;;8.13;;
45007;SDS011;30743;52.008;5.644;2024-01-11T14:19:11;16.55;;;8.77;;
45007;SDS011;30743;52.008;5.644;2024-01-11T14:21:37;13.45;;;8.00;;
45007;SDS011;30743;52.008;5.644;2024-01-11T14:24:05;17.25;;;8.25;;
45007;SDS011;30743;52.008;5.644;2024-01-11T14:26:31;15.63;;;7.67;;
45007;SDS011;30743;52.008;5.644;2024-01-11T14:28:58;13.15;;;7.78;;
45007;SDS011;30743;52.008;5.644;2024-01-11T14:31:23;14.98;;;8.35;;
45007;SDS011;30743;52.008;5.644;2024-01-11T14:33:49;16.20;;;8.02;;